sensor_id;sensor_type;location;lat;lon;timestamp;noise_LAeq;noise_LA_min;noise_LA_max;noise_LA01;noise_LA95
67398;Laerm;57728;50.448;18.824;2023-03-01T00:01:53;33.59;32.51;34.83;;
67398;Laerm;57728;50.448;18.824;2023-03-01T00:03:58;33.57;32.53;34.73;;
67398;Laerm;57728;50.448;18.824;2023-03-01T00:06:03;33.52;32.54;34.54;;
67398;Laerm;57728;50.448;18.824;2023-03-01T00:08:05;33.54;32.58;34.78;;
67398;Laerm;57728;50.448;18.824;2023-03-01T00:10:07;33.53;32.53;34.55;;
67398;Laerm;57728;50.448;18.824;2023-03-01T00:12:09;33.55;32.37;34.61;;
67398;Laerm;57728;50.448;18.824;2023-03-01T00:14:12;33.55;32.52;34.56;;
67398;Laerm;57728;50.448;18.824;2023-03-01T00:16:20;33.51;32.45;34.49;;
67398;Laerm;57728;50.448;18.824;2023-03-01T00:18:22;33.50;32.41;34.65;;
67398;Laerm;57728;50.448;18.824;2023-03-01T00:20:24;33.51;32.50;34.50;;
67398;Laerm;57728;50.448;18.824;2023-03-01T00:22:27;33.49;32.34;34.45;;
67398;Laerm;57728;50.448;18.824;2023-03-01T00:24:30;33.48;32.24;34.55;;
67398;Laerm;57728;50.448;18.824;2023-03-01T00:26:31;33.48;32.35;34.44;;
67398;Laerm;57728;50.448;18.824;2023-03-01T00:28:33;33.47;32.52;34.42;;
67398;Laerm;57728;50.448;18.824;2023-03-01T00:30:35;33.47;32.49;34.41;;
67398;Laerm;57728;50.448;18.824;2023-03-01T00:32:37;33.51;32.34;34.38;;
67398;Laerm;57728;50.448;18.824;2023-03-01T00:34:38;33.52;32.45;34.44;;
67398;Laerm;57728;50.448;18.824;2023-03-01T00:36:40;33.53;32.48;34.48;;
67398;Laerm;57728;50.448;18.824;2023-03-01T00:38:45;33.57;32.16;34.59;;
67398;Laerm;57728;50.448;18.824;2023-03-01T00:40:46;33.56;32.54;34.75;;
67398;Laerm;57728;50.448;18.824;2023-03-01T00:42:49;33.61;32.57;34.88;;
67398;Laerm;57728;50.448;18.824;2023-03-01T00:44:52;33.63;32.53;38.20;;
67398;Laerm;57728;50.448;18.824;2023-03-01T00:46:53;33.71;32.45;44.48;;
67398;Laerm;57728;50.448;18.824;2023-03-01T00:48:56;33.73;32.46;39.09;;
67398;Laerm;57728;50.448;18.824;2023-03-01T00:51:07;33.78;32.35;38.47;;
67398;Laerm;57728;50.448;18.824;2023-03-01T00:53:09;33.61;32.47;38.51;;
67398;Laerm;57728;50.448;18.824;2023-03-01T00:55:12;33.53;32.48;38.84;;
67398;Laerm;57728;50.448;18.824;2023-03-01T00:57:15;33.55;32.43;34.60;;
67398;Laerm;57728;50.448;18.824;2023-03-01T00:59:16;33.61;32.49;34.71;;
67398;Laerm;57728;50.448;18.824;2023-03-01T01:01:25;33.58;32.46;34.70;;
67398;Laerm;57728;50.448;18.824;2023-03-01T01:03:28;33.57;32.52;34.58;;
67398;Laerm;57728;50.448;18.824;2023-03-01T01:05:29;33.53;32.60;34.78;;
67398;Laerm;57728;50.448;18.824;2023-03-01T01:07:32;33.52;32.43;34.47;;
67398;Laerm;57728;50.448;18.824;2023-03-01T01:09:34;33.53;32.46;34.50;;
67398;Laerm;57728;50.448;18.824;2023-03-01T01:11:36;33.54;32.57;34.55;;
67398;Laerm;57728;50.448;18.824;2023-03-01T01:13:39;33.55;32.54;34.73;;
67398;Laerm;57728;50.448;18.824;2023-03-01T01:15:42;33.57;32.50;34.58;;
67398;Laerm;57728;50.448;18.824;2023-03-01T01:17:43;33.62;32.60;34.86;;
67398;Laerm;57728;50.448;18.824;2023-03-01T01:19:45;33.59;32.67;34.80;;
67398;Laerm;57728;50.448;18.824;2023-03-01T01:21:48;33.62;32.55;34.54;;
67398;Laerm;57728;50.448;18.824;2023-03-01T01:23:51;33.62;32.36;34.59;;
67398;Laerm;57728;50.448;18.824;2023-03-01T01:25:54;33.58;32.42;34.65;;
67398;Laerm;57728;50.448;18.824;2023-03-01T01:27:55;33.58;32.58;34.61;;
67398;Laerm;57728;50.448;18.824;2023-03-01T01:30:00;33.66;32.54;34.87;;
67398;Laerm;57728;50.448;18.824;2023-03-01T01:32:02;33.60;32.56;34.67;;
67398;Laerm;57728;50.448;18.824;2023-03-01T01:34:08;33.56;32.48;34.57;;
67398;Laerm;57728;50.448;18.824;2023-03-01T01:36:11;33.59;32.45;34.56;;
67398;Laerm;57728;50.448;18.824;2023-03-01T01:38:13;33.60;32.55;34.54;;
67398;Laerm;57728;50.448;18.824;2023-03-01T01:40:14;33.57;32.56;34.68;;
67398;Laerm;57728;50.448;18.824;2023-03-01T01:42:18;33.58;32.50;34.54;;
67398;Laerm;57728;50.448;18.824;2023-03-01T01:44:27;33.58;32.44;34.58;;
67398;Laerm;57728;50.448;18.824;2023-03-01T01:46:32;33.63;32.43;34.75;;
67398;Laerm;57728;50.448;18.824;2023-03-01T01:48:55;33.66;32.53;34.78;;
67398;Laerm;57728;50.448;18.824;2023-03-01T01:51:01;33.71;32.54;34.95;;
67398;Laerm;57728;50.448;18.824;2023-03-01T01:53:03;33.56;32.55;34.68;;
67398;Laerm;57728;50.448;18.824;2023-03-01T01:55:18;33.69;32.63;34.99;;
67398;Laerm;57728;50.448;18.824;2023-03-01T01:57:34;33.55;32.48;34.67;;
67398;Laerm;57728;50.448;18.824;2023-03-01T01:59:40;33.54;32.41;34.66;;
67398;Laerm;57728;50.448;18.824;2023-03-01T02:01:44;33.61;32.31;35.65;;
67398;Laerm;57728;50.448;18.824;2023-03-01T02:03:51;33.54;32.35;34.81;;
67398;Laerm;57728;50.448;18.824;2023-03-01T02:06:12;33.55;32.41;34.49;;
67398;Laerm;57728;50.448;18.824;2023-03-01T02:08:20;33.55;32.54;34.59;;
67398;Laerm;57728;50.448;18.824;2023-03-01T02:10:24;33.56;32.61;34.57;;
67398;Laerm;57728;50.448;18.824;2023-03-01T02:12:25;33.52;32.07;34.68;;
67398;Laerm;57728;50.448;18.824;2023-03-01T02:14:27;33.57;32.46;34.58;;
67398;Laerm;57728;50.448;18.824;2023-03-01T02:16:30;33.54;32.55;34.49;;
67398;Laerm;57728;50.448;18.824;2023-03-01T02:18:32;33.56;32.44;34.47;;
67398;Laerm;57728;50.448;18.824;2023-03-01T02:21:01;33.52;32.30;34.61;;
67398;Laerm;57728;50.448;18.824;2023-03-01T02:23:08;33.52;32.26;34.61;;
67398;Laerm;57728;50.448;18.824;2023-03-01T02:27:41;33.49;32.48;34.58;;
67398;Laerm;57728;50.448;18.824;2023-03-01T02:29:48;33.50;32.41;34.56;;
67398;Laerm;57728;50.448;18.824;2023-03-01T02:31:56;33.57;32.49;36.42;;
67398;Laerm;57728;50.448;18.824;2023-03-01T02:34:02;33.49;32.46;34.44;;
67398;Laerm;57728;50.448;18.824;2023-03-01T02:36:19;33.48;32.48;34.62;;
67398;Laerm;57728;50.448;18.824;2023-03-01T02:38:23;33.51;32.47;34.52;;
67398;Laerm;57728;50.448;18.824;2023-03-01T02:40:30;33.51;32.28;34.47;;
67398;Laerm;57728;50.448;18.824;2023-03-01T02:42:46;33.52;32.31;34.62;;
67398;Laerm;57728;50.448;18.824;2023-03-01T02:44:50;33.52;32.20;34.48;;
67398;Laerm;57728;50.448;18.824;2023-03-01T02:46:56;33.57;32.49;34.65;;
67398;Laerm;57728;50.448;18.824;2023-03-01T02:49:29;33.56;32.48;34.69;;
67398;Laerm;57728;50.448;18.824;2023-03-01T02:56:18;33.71;32.59;37.47;;
67398;Laerm;57728;50.448;18.824;2023-03-01T02:58:21;33.84;32.22;47.04;;
67398;Laerm;57728;50.448;18.824;2023-03-01T03:00:33;33.65;32.58;36.64;;
67398;Laerm;57728;50.448;18.824;2023-03-01T03:02:36;33.78;32.23;49.26;;
67398;Laerm;57728;50.448;18.824;2023-03-01T03:05:02;33.65;32.61;44.04;;
67398;Laerm;57728;50.448;18.824;2023-03-01T03:07:04;33.95;32.55;46.54;;
67398;Laerm;57728;50.448;18.824;2023-03-01T03:09:05;33.65;32.35;42.54;;
67398;Laerm;57728;50.448;18.824;2023-03-01T03:11:11;33.58;32.41;42.30;;
67398;Laerm;57728;50.448;18.824;2023-03-01T03:13:14;33.58;32.50;42.48;;
67398;Laerm;57728;50.448;18.824;2023-03-01T03:15:22;33.70;32.38;45.38;;
67398;Laerm;57728;50.448;18.824;2023-03-01T03:17:26;33.52;32.42;38.05;;
67398;Laerm;57728;50.448;18.824;2023-03-01T03:19:29;33.63;32.42;40.24;;
67398;Laerm;57728;50.448;18.824;2023-03-01T03:21:33;33.71;32.64;38.17;;
67398;Laerm;57728;50.448;18.824;2023-03-01T03:23:39;33.72;32.55;45.42;;
67398;Laerm;57728;50.448;18.824;2023-03-01T03:25:40;33.71;32.46;44.10;;
67398;Laerm;57728;50.448;18.824;2023-03-01T03:27:44;33.78;32.50;44.58;;
67398;Laerm;57728;50.448;18.824;2023-03-01T03:29:47;33.61;32.48;45.79;;
67398;Laerm;57728;50.448;18.824;2023-03-01T03:31:48;33.47;32.37;40.71;;
67398;Laerm;57728;50.448;18.824;2023-03-01T03:33:50;33.45;32.36;35.64;;
67398;Laerm;57728;50.448;18.824;2023-03-01T03:35:52;33.44;32.30;35.20;;
67398;Laerm;57728;50.448;18.824;2023-03-01T03:37:54;33.45;32.38;34.47;;
67398;Laerm;57728;50.448;18.824;2023-03-01T03:40:05;33.47;32.25;34.36;;
67398;Laerm;57728;50.448;18.824;2023-03-01T03:42:17;33.47;32.48;34.54;;
67398;Laerm;57728;50.448;18.824;2023-03-01T03:44:19;33.50;32.41;34.76;;
67398;Laerm;57728;50.448;18.824;2023-03-01T03:46:20;33.68;32.24;38.15;;
67398;Laerm;57728;50.448;18.824;2023-03-01T03:48:24;33.53;32.46;34.47;;
67398;Laerm;57728;50.448;18.824;2023-03-01T03:50:26;33.55;32.21;34.49;;
67398;Laerm;57728;50.448;18.824;2023-03-01T03:52:28;33.54;32.38;35.16;;
67398;Laerm;57728;50.448;18.824;2023-03-01T03:54:30;33.49;32.36;34.57;;
67398;Laerm;57728;50.448;18.824;2023-03-01T03:56:31;33.52;32.29;34.56;;
67398;Laerm;57728;50.448;18.824;2023-03-01T03:58:34;33.56;32.38;34.84;;
67398;Laerm;57728;50.448;18.824;2023-03-01T04:00:40;33.54;32.29;34.46;;
67398;Laerm;57728;50.448;18.824;2023-03-01T04:02:42;33.55;32.46;34.59;;
67398;Laerm;57728;50.448;18.824;2023-03-01T04:04:44;33.76;32.54;36.79;;
67398;Laerm;57728;50.448;18.824;2023-03-01T04:06:46;33.68;32.54;36.77;;
67398;Laerm;57728;50.448;18.824;2023-03-01T04:08:49;33.58;32.59;34.67;;
67398;Laerm;57728;50.448;18.824;2023-03-01T04:10:59;33.81;32.53;40.46;;
67398;Laerm;57728;50.448;18.824;2023-03-01T04:13:23;33.61;32.53;34.72;;
67398;Laerm;57728;50.448;18.824;2023-03-01T04:15:27;33.64;32.56;44.71;;
67398;Laerm;57728;50.448;18.824;2023-03-01T04:17:29;33.61;32.44;34.70;;
67398;Laerm;57728;50.448;18.824;2023-03-01T04:19:32;33.68;32.40;35.44;;
67398;Laerm;57728;50.448;18.824;2023-03-01T04:21:37;33.60;32.25;34.74;;
67398;Laerm;57728;50.448;18.824;2023-03-01T04:23:39;33.71;32.62;37.01;;
67398;Laerm;57728;50.448;18.824;2023-03-01T04:25:52;33.69;32.59;41.00;;
67398;Laerm;57728;50.448;18.824;2023-03-01T04:27:57;33.86;32.61;39.75;;
67398;Laerm;57728;50.448;18.824;2023-03-01T04:29:58;34.34;32.56;42.07;;
67398;Laerm;57728;50.448;18.824;2023-03-01T04:32:01;33.89;32.61;37.94;;
67398;Laerm;57728;50.448;18.824;2023-03-01T04:34:03;33.75;32.55;37.13;;
67398;Laerm;57728;50.448;18.824;2023-03-01T04:36:06;33.65;32.51;34.77;;
67398;Laerm;57728;50.448;18.824;2023-03-01T04:38:11;33.64;32.39;34.71;;
67398;Laerm;57728;50.448;18.824;2023-03-01T04:40:12;33.68;32.63;36.07;;
67398;Laerm;57728;50.448;18.824;2023-03-01T04:42:18;33.61;32.64;34.66;;
67398;Laerm;57728;50.448;18.824;2023-03-01T04:44:21;33.63;32.59;36.24;;
67398;Laerm;57728;50.448;18.824;2023-03-01T04:46:22;33.95;32.60;40.42;;
67398;Laerm;57728;50.448;18.824;2023-03-01T04:48:24;33.68;32.48;34.73;;
67398;Laerm;57728;50.448;18.824;2023-03-01T04:50:26;33.60;32.28;35.83;;
67398;Laerm;57728;50.448;18.824;2023-03-01T04:52:28;33.67;32.55;37.97;;
67398;Laerm;57728;50.448;18.824;2023-03-01T04:54:34;33.60;32.53;35.54;;
67398;Laerm;57728;50.448;18.824;2023-03-01T04:56:36;33.53;32.38;34.53;;
67398;Laerm;57728;50.448;18.824;2023-03-01T04:58:38;33.53;32.35;34.47;;
67398;Laerm;57728;50.448;18.824;2023-03-01T05:00:39;33.70;32.52;37.67;;
67398;Laerm;57728;50.448;18.824;2023-03-01T05:02:41;33.72;32.50;39.26;;
67398;Laerm;57728;50.448;18.824;2023-03-01T05:04:44;33.89;32.51;37.93;;
67398;Laerm;57728;50.448;18.824;2023-03-01T05:06:45;34.51;32.76;38.28;;
67398;Laerm;57728;50.448;18.824;2023-03-01T05:08:49;33.67;32.47;37.99;;
67398;Laerm;57728;50.448;18.824;2023-03-01T05:10:52;33.96;32.50;39.64;;
67398;Laerm;57728;50.448;18.824;2023-03-01T05:12:56;33.70;32.60;38.05;;
67398;Laerm;57728;50.448;18.824;2023-03-01T05:15:00;33.56;32.39;47.36;;
67398;Laerm;57728;50.448;18.824;2023-03-01T05:17:08;33.74;32.48;38.20;;
67398;Laerm;57728;50.448;18.824;2023-03-01T05:19:10;33.69;32.40;37.50;;
67398;Laerm;57728;50.448;18.824;2023-03-01T05:21:17;33.79;32.53;36.71;;
67398;Laerm;57728;50.448;18.824;2023-03-01T05:23:20;34.21;32.41;40.22;;
67398;Laerm;57728;50.448;18.824;2023-03-01T05:25:21;33.90;32.66;41.90;;
67398;Laerm;57728;50.448;18.824;2023-03-01T05:27:25;33.92;32.65;41.88;;
67398;Laerm;57728;50.448;18.824;2023-03-01T05:29:30;34.07;32.68;40.40;;
67398;Laerm;57728;50.448;18.824;2023-03-01T05:31:32;33.99;32.73;41.78;;
67398;Laerm;57728;50.448;18.824;2023-03-01T05:33:36;34.27;32.67;43.13;;
67398;Laerm;57728;50.448;18.824;2023-03-01T05:35:43;35.54;33.01;47.64;;
67398;Laerm;57728;50.448;18.824;2023-03-01T05:37:48;33.98;32.78;38.30;;
67398;Laerm;57728;50.448;18.824;2023-03-01T05:39:51;34.12;32.64;48.22;;
67398;Laerm;57728;50.448;18.824;2023-03-01T05:41:58;34.38;32.71;38.28;;
67398;Laerm;57728;50.448;18.824;2023-03-01T05:43:59;34.28;32.64;40.75;;
67398;Laerm;57728;50.448;18.824;2023-03-01T05:46:02;34.59;32.63;48.45;;
67398;Laerm;57728;50.448;18.824;2023-03-01T05:48:05;34.10;32.85;38.04;;
67398;Laerm;57728;50.448;18.824;2023-03-01T05:50:07;33.99;32.69;38.08;;
67398;Laerm;57728;50.448;18.824;2023-03-01T05:52:10;34.21;32.52;38.95;;
67398;Laerm;57728;50.448;18.824;2023-03-01T05:54:11;34.07;32.65;39.17;;
67398;Laerm;57728;50.448;18.824;2023-03-01T05:56:12;35.13;32.70;53.35;;
67398;Laerm;57728;50.448;18.824;2023-03-01T05:58:19;34.65;32.92;53.41;;
67398;Laerm;57728;50.448;18.824;2023-03-01T06:00:21;34.10;32.61;41.27;;
67398;Laerm;57728;50.448;18.824;2023-03-01T06:02:29;37.18;32.87;46.49;;
67398;Laerm;57728;50.448;18.824;2023-03-01T06:04:31;33.78;32.48;39.58;;
67398;Laerm;57728;50.448;18.824;2023-03-01T06:06:37;34.01;32.38;38.82;;
67398;Laerm;57728;50.448;18.824;2023-03-01T06:08:38;34.08;32.59;39.44;;
67398;Laerm;57728;50.448;18.824;2023-03-01T06:10:41;34.07;32.68;38.95;;
67398;Laerm;57728;50.448;18.824;2023-03-01T06:12:44;36.19;32.64;43.17;;
67398;Laerm;57728;50.448;18.824;2023-03-01T06:14:46;34.81;32.62;41.98;;
67398;Laerm;57728;50.448;18.824;2023-03-01T06:16:52;35.14;32.69;42.37;;
67398;Laerm;57728;50.448;18.824;2023-03-01T06:18:55;33.92;32.60;37.03;;
67398;Laerm;57728;50.448;18.824;2023-03-01T06:20:57;34.91;32.92;40.15;;
67398;Laerm;57728;50.448;18.824;2023-03-01T06:23:02;40.29;34.50;45.46;;
67398;Laerm;57728;50.448;18.824;2023-03-01T06:25:04;39.50;32.87;45.90;;
67398;Laerm;57728;50.448;18.824;2023-03-01T06:27:09;34.86;32.82;40.23;;
67398;Laerm;57728;50.448;18.824;2023-03-01T06:29:13;34.10;32.31;48.77;;
67398;Laerm;57728;50.448;18.824;2023-03-01T06:31:15;34.73;32.55;43.81;;
67398;Laerm;57728;50.448;18.824;2023-03-01T06:33:18;34.30;32.63;43.37;;
67398;Laerm;57728;50.448;18.824;2023-03-01T06:35:22;34.96;32.59;39.95;;
67398;Laerm;57728;50.448;18.824;2023-03-01T06:37:23;34.02;32.78;37.23;;
67398;Laerm;57728;50.448;18.824;2023-03-01T06:39:27;34.01;32.66;37.85;;
67398;Laerm;57728;50.448;18.824;2023-03-01T06:41:29;34.39;32.90;42.12;;
67398;Laerm;57728;50.448;18.824;2023-03-01T06:43:31;34.36;32.68;38.22;;
67398;Laerm;57728;50.448;18.824;2023-03-01T06:45:33;34.58;32.62;41.23;;
67398;Laerm;57728;50.448;18.824;2023-03-01T06:47:36;34.38;32.46;41.07;;
67398;Laerm;57728;50.448;18.824;2023-03-01T06:49:37;34.50;32.68;44.29;;
67398;Laerm;57728;50.448;18.824;2023-03-01T06:51:38;34.54;32.64;42.69;;
67398;Laerm;57728;50.448;18.824;2023-03-01T06:53:42;34.18;32.67;45.56;;
67398;Laerm;57728;50.448;18.824;2023-03-01T06:55:43;34.32;32.47;42.54;;
67398;Laerm;57728;50.448;18.824;2023-03-01T06:57:46;34.93;32.62;43.35;;
67398;Laerm;57728;50.448;18.824;2023-03-01T06:59:49;35.86;32.78;47.86;;
67398;Laerm;57728;50.448;18.824;2023-03-01T07:01:50;34.52;32.57;49.74;;
67398;Laerm;57728;50.448;18.824;2023-03-01T07:03:52;34.46;32.60;47.05;;
67398;Laerm;57728;50.448;18.824;2023-03-01T07:05:54;34.94;32.67;45.01;;
67398;Laerm;57728;50.448;18.824;2023-03-01T07:07:56;34.49;32.71;44.98;;
67398;Laerm;57728;50.448;18.824;2023-03-01T07:09:58;34.30;32.64;40.42;;
67398;Laerm;57728;50.448;18.824;2023-03-01T07:12:01;33.92;32.48;39.49;;
67398;Laerm;57728;50.448;18.824;2023-03-01T07:14:03;33.63;32.31;45.35;;
67398;Laerm;57728;50.448;18.824;2023-03-01T07:16:05;33.77;32.23;38.22;;
67398;Laerm;57728;50.448;18.824;2023-03-01T07:18:09;33.86;32.47;50.48;;
67398;Laerm;57728;50.448;18.824;2023-03-01T07:20:11;33.60;32.39;45.84;;
67398;Laerm;57728;50.448;18.824;2023-03-01T07:22:13;33.72;32.19;37.89;;
67398;Laerm;57728;50.448;18.824;2023-03-01T07:24:15;33.94;32.16;38.15;;
67398;Laerm;57728;50.448;18.824;2023-03-01T07:26:16;33.42;32.18;41.82;;
67398;Laerm;57728;50.448;18.824;2023-03-01T07:28:18;33.41;32.31;36.06;;
67398;Laerm;57728;50.448;18.824;2023-03-01T07:30:22;33.73;32.21;46.50;;
67398;Laerm;57728;50.448;18.824;2023-03-01T07:32:23;33.63;32.37;46.38;;
67398;Laerm;57728;50.448;18.824;2023-03-01T07:34:25;33.63;32.28;41.57;;
67398;Laerm;57728;50.448;18.824;2023-03-01T07:36:27;36.09;32.12;56.46;;
67398;Laerm;57728;50.448;18.824;2023-03-01T07:38:29;36.12;32.25;52.31;;
67398;Laerm;57728;50.448;18.824;2023-03-01T07:40:31;33.97;32.09;51.83;;
67398;Laerm;57728;50.448;18.824;2023-03-01T07:42:33;33.85;32.17;40.75;;
67398;Laerm;57728;50.448;18.824;2023-03-01T07:44:35;33.67;32.10;46.88;;
67398;Laerm;57728;50.448;18.824;2023-03-01T07:46:36;33.48;32.18;40.12;;
67398;Laerm;57728;50.448;18.824;2023-03-01T07:48:38;33.54;32.27;38.46;;
67398;Laerm;57728;50.448;18.824;2023-03-01T07:50:40;33.22;32.14;35.64;;
67398;Laerm;57728;50.448;18.824;2023-03-01T07:52:41;33.83;32.15;40.13;;
67398;Laerm;57728;50.448;18.824;2023-03-01T07:54:44;33.89;32.25;44.35;;
67398;Laerm;57728;50.448;18.824;2023-03-01T07:56:45;33.57;32.21;42.59;;
67398;Laerm;57728;50.448;18.824;2023-03-01T07:58:47;33.66;32.23;40.57;;
67398;Laerm;57728;50.448;18.824;2023-03-01T08:00:50;33.19;32.28;38.37;;
67398;Laerm;57728;50.448;18.824;2023-03-01T08:02:51;33.85;32.17;39.02;;
67398;Laerm;57728;50.448;18.824;2023-03-01T08:04:52;33.16;32.12;35.76;;
67398;Laerm;57728;50.448;18.824;2023-03-01T08:06:55;33.19;31.93;37.74;;
67398;Laerm;57728;50.448;18.824;2023-03-01T08:08:56;33.37;32.19;39.72;;
67398;Laerm;57728;50.448;18.824;2023-03-01T08:11:01;33.95;32.22;47.17;;
67398;Laerm;57728;50.448;18.824;2023-03-01T08:13:04;33.27;32.08;41.46;;
67398;Laerm;57728;50.448;18.824;2023-03-01T08:15:06;33.36;32.08;37.95;;
67398;Laerm;57728;50.448;18.824;2023-03-01T08:17:08;33.33;32.22;39.25;;
67398;Laerm;57728;50.448;18.824;2023-03-01T08:19:12;33.42;32.01;38.30;;
67398;Laerm;57728;50.448;18.824;2023-03-01T08:21:17;33.30;31.93;39.87;;
67398;Laerm;57728;50.448;18.824;2023-03-01T08:23:19;33.32;31.79;37.42;;
67398;Laerm;57728;50.448;18.824;2023-03-01T08:25:21;33.34;32.20;38.80;;
67398;Laerm;57728;50.448;18.824;2023-03-01T08:27:22;33.96;32.17;44.06;;
67398;Laerm;57728;50.448;18.824;2023-03-01T08:29:24;34.59;32.15;49.52;;
67398;Laerm;57728;50.448;18.824;2023-03-01T08:31:33;33.96;32.16;49.02;;
67398;Laerm;57728;50.448;18.824;2023-03-01T08:33:36;33.39;32.28;39.89;;
67398;Laerm;57728;50.448;18.824;2023-03-01T08:35:38;34.38;32.23;41.09;;
67398;Laerm;57728;50.448;18.824;2023-03-01T08:37:40;33.61;32.22;42.74;;
67398;Laerm;57728;50.448;18.824;2023-03-01T08:39:41;35.90;32.41;43.05;;
67398;Laerm;57728;50.448;18.824;2023-03-01T08:41:43;33.70;32.41;38.43;;
67398;Laerm;57728;50.448;18.824;2023-03-01T08:43:45;33.98;32.40;37.72;;
67398;Laerm;57728;50.448;18.824;2023-03-01T08:45:48;33.48;32.35;37.05;;
67398;Laerm;57728;50.448;18.824;2023-03-01T08:47:52;37.13;32.50;50.82;;
67398;Laerm;57728;50.448;18.824;2023-03-01T08:49:55;33.57;32.51;35.34;;
67398;Laerm;57728;50.448;18.824;2023-03-01T08:51:56;34.12;32.49;43.44;;
67398;Laerm;57728;50.448;18.824;2023-03-01T08:53:58;33.54;32.57;35.69;;
67398;Laerm;57728;50.448;18.824;2023-03-01T08:56:01;34.97;32.64;41.84;;
67398;Laerm;57728;50.448;18.824;2023-03-01T08:58:04;33.69;32.43;42.95;;
67398;Laerm;57728;50.448;18.824;2023-03-01T09:00:06;34.17;32.61;42.51;;
67398;Laerm;57728;50.448;18.824;2023-03-01T09:02:17;33.89;32.55;37.99;;
67398;Laerm;57728;50.448;18.824;2023-03-01T09:04:19;33.82;32.66;40.22;;
67398;Laerm;57728;50.448;18.824;2023-03-01T09:06:20;34.10;32.68;42.06;;
67398;Laerm;57728;50.448;18.824;2023-03-01T09:08:23;33.71;32.31;37.79;;
67398;Laerm;57728;50.448;18.824;2023-03-01T09:10:25;33.70;32.52;38.76;;
67398;Laerm;57728;50.448;18.824;2023-03-01T09:12:26;33.75;32.61;36.27;;
67398;Laerm;57728;50.448;18.824;2023-03-01T09:14:29;33.92;32.68;39.07;;
67398;Laerm;57728;50.448;18.824;2023-03-01T09:16:30;34.01;32.63;43.92;;
67398;Laerm;57728;50.448;18.824;2023-03-01T09:18:37;34.02;32.74;38.65;;
67398;Laerm;57728;50.448;18.824;2023-03-01T09:20:40;33.95;32.58;38.31;;
67398;Laerm;57728;50.448;18.824;2023-03-01T09:22:42;34.04;32.44;40.42;;
67398;Laerm;57728;50.448;18.824;2023-03-01T09:24:45;33.94;32.59;39.11;;
67398;Laerm;57728;50.448;18.824;2023-03-01T09:26:47;33.74;32.50;38.33;;
67398;Laerm;57728;50.448;18.824;2023-03-01T09:28:53;33.80;32.39;40.63;;
67398;Laerm;57728;50.448;18.824;2023-03-01T09:30:59;34.01;32.48;39.59;;
67398;Laerm;57728;50.448;18.824;2023-03-01T09:33:01;34.23;32.60;41.15;;
67398;Laerm;57728;50.448;18.824;2023-03-01T09:35:03;33.77;32.71;37.18;;
67398;Laerm;57728;50.448;18.824;2023-03-01T09:37:05;34.36;32.65;41.43;;
67398;Laerm;57728;50.448;18.824;2023-03-01T09:39:08;34.23;32.43;42.30;;
67398;Laerm;57728;50.448;18.824;2023-03-01T09:43:51;33.64;32.42;37.72;;
67398;Laerm;57728;50.448;18.824;2023-03-01T09:46:09;33.83;32.32;39.54;;
67398;Laerm;57728;50.448;18.824;2023-03-01T09:48:19;33.87;32.43;40.40;;
67398;Laerm;57728;50.448;18.824;2023-03-01T09:50:33;33.62;32.42;40.05;;
67398;Laerm;57728;50.448;18.824;2023-03-01T09:52:53;40.34;33.03;46.55;;
67398;Laerm;57728;50.448;18.824;2023-03-01T09:54:57;43.49;33.18;49.55;;
67398;Laerm;57728;50.448;18.824;2023-03-01T09:57:18;34.62;32.49;38.77;;
67398;Laerm;57728;50.448;18.824;2023-03-01T09:59:45;33.72;32.46;36.93;;
67398;Laerm;57728;50.448;18.824;2023-03-01T10:02:49;33.86;32.34;51.22;;
67398;Laerm;57728;50.448;18.824;2023-03-01T10:09:36;35.70;32.71;51.12;;
67398;Laerm;57728;50.448;18.824;2023-03-01T10:11:48;34.08;32.35;45.92;;
67398;Laerm;57728;50.448;18.824;2023-03-01T10:14:19;33.62;32.28;40.10;;
67398;Laerm;57728;50.448;18.824;2023-03-01T10:19:00;33.93;32.34;39.05;;
67398;Laerm;57728;50.448;18.824;2023-03-01T10:21:18;33.44;32.28;36.52;;
67398;Laerm;57728;50.448;18.824;2023-03-01T10:23:24;33.56;32.12;43.72;;
67398;Laerm;57728;50.448;18.824;2023-03-01T10:25:47;34.21;32.39;46.42;;
67398;Laerm;57728;50.448;18.824;2023-03-01T10:28:01;35.04;32.36;43.42;;
67398;Laerm;57728;50.448;18.824;2023-03-01T10:30:35;34.61;32.64;43.60;;
67398;Laerm;57728;50.448;18.824;2023-03-01T10:32:40;34.15;32.76;39.67;;
67398;Laerm;57728;50.448;18.824;2023-03-01T10:34:42;33.97;32.38;37.62;;
67398;Laerm;57728;50.448;18.824;2023-03-01T10:36:49;33.88;32.53;39.56;;
67398;Laerm;57728;50.448;18.824;2023-03-01T10:38:56;33.72;32.25;38.08;;
67398;Laerm;57728;50.448;18.824;2023-03-01T10:41:06;35.15;32.50;44.30;;
67398;Laerm;57728;50.448;18.824;2023-03-01T10:43:12;33.50;32.31;41.35;;
67398;Laerm;57728;50.448;18.824;2023-03-01T10:47:30;33.67;32.12;40.31;;
67398;Laerm;57728;50.448;18.824;2023-03-01T10:49:32;33.42;32.38;39.16;;
67398;Laerm;57728;50.448;18.824;2023-03-01T10:51:34;34.10;32.27;38.83;;
67398;Laerm;57728;50.448;18.824;2023-03-01T10:53:48;36.09;32.30;48.36;;
67398;Laerm;57728;50.448;18.824;2023-03-01T10:56:11;43.31;34.96;66.34;;
67398;Laerm;57728;50.448;18.824;2023-03-01T10:58:20;37.53;33.06;62.25;;
67398;Laerm;57728;50.448;18.824;2023-03-01T11:00:25;34.74;32.48;44.60;;
67398;Laerm;57728;50.448;18.824;2023-03-01T11:02:31;33.38;32.13;37.18;;
67398;Laerm;57728;50.448;18.824;2023-03-01T11:04:36;33.40;32.12;40.37;;
67398;Laerm;57728;50.448;18.824;2023-03-01T11:06:40;33.83;32.29;40.91;;
67398;Laerm;57728;50.448;18.824;2023-03-01T11:08:46;33.53;32.15;39.64;;
67398;Laerm;57728;50.448;18.824;2023-03-01T11:10:49;33.40;32.23;37.10;;
67398;Laerm;57728;50.448;18.824;2023-03-01T11:12:53;33.41;32.28;37.11;;
67398;Laerm;57728;50.448;18.824;2023-03-01T11:14:56;33.27;32.09;36.09;;
67398;Laerm;57728;50.448;18.824;2023-03-01T11:17:28;33.48;32.26;41.73;;
67398;Laerm;57728;50.448;18.824;2023-03-01T11:19:31;33.73;32.15;38.21;;
67398;Laerm;57728;50.448;18.824;2023-03-01T11:24:13;33.52;32.30;43.57;;
67398;Laerm;57728;50.448;18.824;2023-03-01T11:26:18;33.55;32.22;42.02;;
67398;Laerm;57728;50.448;18.824;2023-03-01T11:28:22;33.92;32.23;44.86;;
67398;Laerm;57728;50.448;18.824;2023-03-01T11:30:37;33.89;32.16;51.23;;
67398;Laerm;57728;50.448;18.824;2023-03-01T11:35:32;33.51;31.96;39.68;;
67398;Laerm;57728;50.448;18.824;2023-03-01T11:38:34;33.34;32.23;41.15;;
67398;Laerm;57728;50.448;18.824;2023-03-01T11:40:29;33.66;32.21;40.02;;
67398;Laerm;57728;50.448;18.824;2023-03-01T11:44:52;33.55;32.26;38.93;;
67398;Laerm;57728;50.448;18.824;2023-03-01T11:47:32;34.02;32.27;42.84;;
67398;Laerm;57728;50.448;18.824;2023-03-01T11:50:32;33.60;32.27;41.02;;
67398;Laerm;57728;50.448;18.824;2023-03-01T12:00:05;33.31;32.35;34.92;;
67398;Laerm;57728;50.448;18.824;2023-03-01T12:18:02;33.59;32.36;38.43;;
67398;Laerm;57728;50.448;18.824;2023-03-01T12:20:21;33.73;32.17;37.80;;
67398;Laerm;57728;50.448;18.824;2023-03-01T12:30:25;33.67;32.09;39.23;;